Terminal Aerodrome Forecast
Issued by NWS

Home | Current Version | Previous Version | Text Only | Print | Product List | Glossary On
Versions: 1 2 3 4 5 6 7 8 9 10 11 12 13 14 15 16 17 18 19 20
000
FTUS43 KAPX 251120
TAFAPN
TAF
KAPN 251120Z 2512/2612 28004KT P6SM SCT045 BKN100
     FM251600 31007KT P6SM BKN025
     FM251700 32007KT P6SM BKN035
     FM251800 32007KT P6SM VCTS BKN040CB
     FM252000 01007KT P6SM VCTS BKN035CB
     FM252300 04005KT P6SM BKN060
     FM261000 00000KT P6SM BKN030=

USA.gov is the U.S. government's official web portal to all federal, state and local government web resources and services.